Annapolis, Maryland
Current Conditions -  °F | °C
As of 7:54 AM on Friday 28 Nov 2014 (Local Time) from KNAK Reporting Station
Clear Clear  
Wind Chill: 29°   Ceiling: Unl
Heat Index: 35°   Visibility: 10mi
Dew Point: 22°   Wind: 8mph
Humidity: 59%   Direction: 290°WNW
Pressure: 30.27"   Gusts: NA
Location:  38.98°N, 76.49°W
Report Text: KNAK 281254Z AUTO 29007KT 10SM CLR 02/M06 A3027 RMK AO2 SLP250 T00171056
Loading
Personal Weather Stations






























Interactive Weather Map New forecast layout! Learn more

10-Day Weather Forecast

Advertisements
Track Severe Weather on mobile